Arthur City, Texas
Current Conditions -  °F | °C
As of 5:55 PM on Tuesday 25 Nov 2014 (Local Time) from KHHW Reporting Station
Clear Clear  
Wind Chill: 53°   Ceiling: Unl
Heat Index: 53°   Visibility: 10mi
Dew Point: 20°   Wind: 5mph
Humidity: 28%   Direction: 280°W
Pressure: 30.15"   Gusts: NA
Location:  33.87°N, 95.51°W
Report Text: KHHW 252355Z AUTO 28004KT 10SM CLR 12/M06 A3015 RMK AO2 T01151065 10158 20115
Loading
Personal Weather Stations






























Interactive Weather Map New forecast layout! Learn more

10-Day Weather Forecast

Advertisements
Track Severe Weather on mobile